Aérodrome :
LOGIN :

S'inscrire | Disclaimer

   EN    FR    IT 

 










Légende :    VFR   VFR Marginal   IFR   IFR Intensif   IFR Très Intensif
Visi : 
Plafond : 
>= 8 km
>= 3000ft
5 à 8 km
1000 à 3000 ft
1500m à 5 km
500 à 1000 ft
800 à 1500m
200 à 500 ft
< 800m
< 200 ft
Symboles :   Orages  Brouillard  Fortes neiges  Fortes précipitations  Vent > 20 kt
SIGMETs :   Divers  Orages  Givrage  Turbulence  Onde Orograph.  Cendres Volcan.






- Altitude de l'aérodrome : 194 ft
- Code IATA : LME


LFRM - Le Mans

DERNIER METAR :
  • 172100Z AUTO 22005KT 9999 FEW037 06/03 Q1026

METARs EXPIRÉS :
  • 172030Z AUTO 22005KT 180V250 CAVOK 07/03 Q1026
  • 172000Z AUTO 22005KT CAVOK 07/03 Q1025
  • 171930Z AUTO 24007KT 200V270 CAVOK 08/03 Q1025
  • 171900Z AUTO 25005KT 200V280 9999 FEW047 08/03 Q1024 TEMPO 4000 SHRA SCT020CB
  • 171830Z AUTO 25006KT 220V290 9999 SCT044 BKN054 08/03 Q1024 TEMPO 4000 SHRA SCT020CB

TAF TAF LFRM
Valide du 17 à 12h jusqu'au 18 à 12h UTC


171100Z 1712/1812 25012KT 9999 BKN030
TEMPO 1712/1721 4000 SHRA SCT020CB
TEMPO 1712/1718 25015G35KT



MET'MAP, la Météo Aéronautique d'un coup d'oeil ! - Copyright ORBIFLY Décembre 2007 - Disclaimer

ORBIFLY MET'MAP TEAM :

Programmation & Développement : Alexandra Zaïnal
Sur une idée originale de : Baudouin d'Aumeries
Assistance à la programmation : Marc-Olivier Méhu
Soutien technique & logistique : Manuel Goepfert

Contact : metmap@orbifly.com




SOURCES & CREDITS :

   NOAA